• Join FlightAware (Why Join?)
  • Login
  • US Flag 
06:14PM EST


 

Airport Tracker/Info


-or-


 

Live Flight TrackerFlight Track Log ✈ C-GGER ✈ 26-Apr-2013 ✈ CYKZ - CYKZ

Flight Track Log - Related Links

Times and Time Zones

All times are in EDT time to prevent confusion due to time zone crossing. See the C-GGER flight status page for this flight to view local times or setup timezone preferences in your user account.

Time Position Orientation Groundspeed Altitude Reporting Facility
EDT Latitude Longitude Course Direction KTS MPH feet Rate Location/Type
08:30AM 43.8833 -79.3833 305° West 120 138 2,300  Level Toronto Center
08:31AM 43.9000 -79.4167 305° West 130 150 3,100 360 Climbing Toronto Center
08:32AM 43.9333 -79.4667 313° West 150 173 3,100  Level Toronto Center
08:33AM 43.9667 -79.5000 324° Northwest 160 184 3,100  Level Toronto Center
08:34AM 44.0000 -79.5333 324° Northwest 160 184 3,100  Level Toronto Center
08:35AM 43.9833 -79.5833 245° Southwest 170 196 3,100  Level Toronto Center
08:36AM 43.9667 -79.6500 251° West 170 196 3,100  Level Toronto Center
08:37AM 43.9667 -79.7000 270° West 170 196 3,100  Level Toronto Center
08:38AM 43.9500 -79.7667 251° West 170 196 3,100  Level Toronto Center
08:39AM 43.9333 -79.8333 251° West 170 196 3,100 360 Level Toronto Center
08:40AM 43.9333 -79.9167 270° West 170 196 3,900 420 Climbing Toronto Center
08:41AM 43.9167 -79.9500 235° Southwest 170 196 4,000 60 Climbing Toronto Center
08:42AM 43.9000 -80.0333 255° West 170 196 4,100  Climbing Toronto Center
08:43AM 43.9000 -80.1000 270° West 170 196 4,000 -60 Descending Toronto Center
08:44AM 43.8500 -80.1333 206° Southwest 180 207 4,000  Level Toronto Center
08:45AM 43.8000 -80.1333 180° South 190 219 4,100  Climbing Toronto Center
08:46AM 43.7500 -80.1667 206° Southwest 190 219 4,000  Descending Toronto Center
08:47AM 43.7000 -80.1833 194° South 190 219 4,100  Climbing Toronto Center
08:48AM 43.6500 -80.2167 206° Southwest 190 219 4,000  Descending Toronto Center
08:49AM 43.6000 -80.2333 194° South 190 219 4,100  Climbing Toronto Center
08:51AM 43.5167 -80.2500 188° South 150 173 4,000 -60 Descending Toronto Center
08:52AM 43.4833 -80.2833 216° Southwest 130 150 4,000  Level Toronto Center
08:53AM 43.5167 -80.2500 36° Northeast 130 150 4,000  Level Toronto Center
08:54AM 43.5167 -80.2000 90° East 130 150 4,000  Level Toronto Center
08:55AM 43.5000 -80.2333 235° Southwest 100 115 4,000  Level Toronto Center
08:56AM 43.4833 -80.2833 245° Southwest 110 127 4,000 -120 Level Toronto Center
08:57AM 43.5000 -80.3000 324° Northwest 100 115 3,800 -360 Descending Toronto Center
08:58AM 43.5167 -80.2500 65° Northeast 130 150 3,300 -300 Descending Toronto Center
08:59AM 43.5333 -80.2000 65° Northeast 130 150 3,300  Level Toronto Center
09:00AM 43.5167 -80.1833 144° Southeast 120 138 3,300  Level Toronto Center
09:01AM 43.5000 -80.2000 216° Southwest 110 127 3,300 -300 Level Toronto Center
09:02AM 43.4833 -80.2500 245° Southwest 110 127 2,700 -600 Descending Toronto Center
09:03AM 43.4833 -80.3000 270° West 110 127 2,100 -600 Descending Toronto Center
09:04AM 43.4667 -80.3167 216° Southwest 110 127 1,600 300 Descending Toronto Center
09:05AM 43.4833 -80.3500 305° West 140 161 2,800 660 Climbing Toronto Center
09:06AM 43.5333 -80.3500 360° North 180 207 3,000 60 Climbing Toronto Center
09:07AM 43.5833 -80.3167 26° Northeast 170 196 3,000  Level Toronto Center
09:08AM 43.6167 -80.3000 20° North 180 207 3,000  Level Toronto Center
09:09AM 43.6667 -80.2833 14° North 180 207 3,000  Level Toronto Center
09:10AM 43.7167 -80.2500 26° Northeast 170 196 3,000  Level Toronto Center
09:11AM 43.7500 -80.2167 36° Northeast 180 207 3,000  Level Toronto Center
09:12AM 43.7833 -80.1667 47° Northeast 180 207 3,000  Level Toronto Center
09:13AM 43.8000 -80.1000 71° East 190 219 3,000  Level Toronto Center
09:14AM 43.8333 -80.0333 55° Northeast 180 207 3,000  Level Toronto Center
09:15AM 43.8500 -79.9833 65° Northeast 180 207 3,000  Level Toronto Center
09:16AM 43.8833 -79.9167 55° Northeast 180 207 3,000  Level Toronto Center
09:17AM 43.9167 -79.8333 61° Northeast 180 207 3,000  Level Toronto Center
09:18AM 43.9333 -79.8000 55° Northeast 180 207 3,000  Level Toronto Center
09:19AM 43.9667 -79.7333 55° Northeast 180 207 3,000  Level Toronto Center
09:20AM 43.9833 -79.6833 65° Northeast 180 207 3,000  Level Toronto Center
09:21AM 44.0000 -79.6167 71° East 180 207 3,000  Level Toronto Center
09:22AM 44.0000 -79.5167 90° East 190 219 3,000  Level Toronto Center
09:23AM 44.0000 -79.4500 90° East 190 219 3,000  Level Toronto Center
09:24AM 43.9667 -79.4000 133° Southeast 200 230 3,000  Level Toronto Center
09:25AM 43.9333 -79.3500 133° Southeast 190 219 3,000  Level Toronto Center
09:26AM 43.9000 -79.2833 125° Southeast 200 230 3,000  Level Toronto Center
09:27AM 43.8500 -79.2333 144° Southeast 200 230 3,000  Level Toronto Center
09:28AM 43.8167 -79.2000 144° Southeast 180 207 3,000  Level Toronto Center
09:29AM 43.8000 -79.1500 115° Southeast 160 184 3,000  Level Toronto Center
09:30AM 43.7667 -79.1667 200° South 130 150 3,000  Level Toronto Center
09:31AM 43.7333 -79.2000 216° Southwest 120 138 3,000  Level Toronto Center
09:32AM 43.7167 -79.2333 235° Southwest 120 138 3,000 -60 Level Toronto Center
09:33AM 43.7333 -79.2333 360° North 110 127 2,900 -360 Descending Toronto Center
09:34AM 43.7667 -79.2667 324° Northwest 110 127 2,300 -600 Descending Toronto Center
09:35AM 43.8000 -79.2833 340° North 100 115 1,700 -600 Descending Toronto Center
09:37AM 43.8500 -79.3667 300° West  Level FlightAware Approximate
09:44AM 43.8622 -79.3700 300° West  Level Estimated